Time;durP1;ratioP1;P1;durP2;ratioP2;P2;SDS_P1;SDS_P2;PMS_P1;PMS_P2;Temp;Humidity;BMP_temperature;BMP_pressure;BME280_temperature;BME280_humidity;BME280_pressure;Samples;Min_cycle;Max_cycle;Signal;HPM_P1;HPM_P2
2023/12/15 00:02:07;;;;;;;20.20;13.00;;;8.30;99.90;;;;;;5056910;28;20180;-73
2023/12/15 00:04:33;;;;;;;19.03;13.47;;;8.30;99.90;;;;;;5056960;28;20227;-72
2023/12/15 00:06:58;;;;;;;15.77;13.27;;;8.40;99.90;;;;;;5056787;28;20214;-73
2023/12/15 00:09:25;;;;;;;18.60;14.37;;;8.40;99.90;;;;;;5056917;28;20636;-74
2023/12/15 00:11:50;;;;;;;20.93;13.13;;;8.40;99.90;;;;;;5056610;28;20174;-74
2023/12/15 00:14:16;;;;;;;14.43;12.00;;;8.50;99.90;;;;;;5056691;28;20177;-74
2023/12/15 00:16:41;;;;;;;20.80;12.77;;;8.40;99.90;;;;;;5056724;28;20184;-74
2023/12/15 00:19:07;;;;;;;20.43;13.40;;;8.30;99.90;;;;;;5056568;28;20664;-72
2023/12/15 00:21:32;;;;;;;18.80;12.50;;;8.30;99.90;;;;;;5055379;28;20182;-74
2023/12/15 00:23:58;;;;;;;16.33;12.17;;;8.30;99.90;;;;;;5056387;28;20181;-73
2023/12/15 00:26:23;;;;;;;18.33;12.57;;;8.30;99.90;;;;;;5067134;28;20220;-73
2023/12/15 00:28:49;;;;;;;19.47;12.07;;;8.30;99.90;;;;;;5096647;28;20218;-72
2023/12/15 00:31:14;;;;;;;19.17;12.77;;;8.30;99.90;;;;;;5096908;28;20241;-73
2023/12/15 00:33:40;;;;;;;17.97;12.77;;;8.40;99.90;;;;;;5096771;28;20634;-73
2023/12/15 00:36:06;;;;;;;16.83;12.47;;;8.40;99.90;;;;;;5096569;28;20634;-74
2023/12/15 00:38:31;;;;;;;20.33;12.70;;;8.40;99.90;;;;;;5078508;28;20180;-73
2023/12/15 00:40:57;;;;;;;19.40;12.40;;;8.30;99.90;;;;;;5096186;28;20276;-73
2023/12/15 00:43:22;;;;;;;17.77;12.87;;;8.30;99.90;;;;;;5096514;28;20228;-73
2023/12/15 00:45:48;;;;;;;21.47;12.67;;;8.30;99.90;;;;;;5096285;28;20212;-72
2023/12/15 00:48:13;;;;;;;19.53;12.43;;;8.30;99.90;;;;;;5096275;28;20289;-73
2023/12/15 00:50:39;;;;;;;21.97;12.23;;;8.40;99.90;;;;;;5078105;28;20203;-73
2023/12/15 00:53:04;;;;;;;21.50;13.37;;;8.40;99.90;;;;;;5096182;28;20219;-73
2023/12/15 00:55:30;;;;;;;19.43;12.20;;;8.40;99.90;;;;;;5095908;28;20196;-74
2023/12/15 00:57:56;;;;;;;19.20;12.33;;;8.40;99.90;;;;;;5078029;28;20172;-73
2023/12/15 01:00:21;;;;;;;17.27;12.43;;;8.40;99.90;;;;;;5095953;28;20220;-72
2023/12/15 01:02:47;;;;;;;16.17;12.53;;;8.50;99.90;;;;;;5096576;28;20220;-73
2023/12/15 01:05:12;;;;;;;18.23;12.10;;;8.50;99.90;;;;;;5095902;28;20191;-73
2023/12/15 01:07:38;;;;;;;18.50;12.50;;;8.30;99.90;;;;;;5096131;28;20208;-73
2023/12/15 01:10:04;;;;;;;16.10;12.33;;;8.40;99.90;;;;;;5095546;28;20182;-72
2023/12/15 01:12:29;;;;;;;20.17;13.37;;;8.40;99.90;;;;;;5094893;28;20183;-73
2023/12/15 01:14:55;;;;;;;21.30;12.83;;;8.40;99.90;;;;;;5095633;28;20230;-72
2023/12/15 01:17:20;;;;;;;20.03;13.00;;;8.50;99.90;;;;;;5095955;28;20251;-72
2023/12/15 01:19:46;;;;;;;22.60;13.53;;;8.50;99.90;;;;;;5095838;28;20211;-72
2023/12/15 01:22:12;;;;;;;19.53;12.83;;;8.40;99.90;;;;;;5095787;28;20631;-72
2023/12/15 01:24:37;;;;;;;19.07;13.37;;;8.50;99.90;;;;;;5095196;28;20234;-72
2023/12/15 01:27:03;;;;;;;20.87;13.63;;;8.50;99.90;;;;;;5095349;28;20289;-73
2023/12/15 01:29:28;;;;;;;20.77;14.50;;;8.60;99.90;;;;;;5095430;28;20195;-73
2023/12/15 01:31:54;;;;;;;20.27;13.60;;;8.60;99.90;;;;;;5095599;28;20179;-72
2023/12/15 01:34:19;;;;;;;19.83;14.10;;;8.40;99.90;;;;;;5095580;28;20175;-72
2023/12/15 01:36:45;;;;;;;21.83;14.27;;;8.50;99.90;;;;;;5095400;28;20179;-73
2023/12/15 01:39:11;;;;;;;24.27;15.30;;;8.40;99.90;;;;;;5095334;28;20631;-73
2023/12/15 01:41:36;;;;;;;25.37;15.27;;;8.40;99.90;;;;;;5095330;28;20175;-72
2023/12/15 01:44:02;;;;;;;20.27;15.50;;;8.40;99.90;;;;;;5077027;28;20638;-73
2023/12/15 01:46:27;;;;;;;22.13;15.27;;;8.40;99.90;;;;;;5095288;28;20187;-73
2023/12/15 01:48:53;;;;;;;23.53;15.67;;;8.40;99.90;;;;;;5095351;28;20242;-73
2023/12/15 01:51:19;;;;;;;24.17;16.10;;;8.40;99.90;;;;;;5095459;28;20693;-74
2023/12/15 01:53:44;;;;;;;29.20;15.80;;;8.50;99.90;;;;;;5094946;28;20179;-74
2023/12/15 01:56:10;;;;;;;25.33;16.10;;;8.50;99.90;;;;;;5095033;28;20172;-73
2023/12/15 01:58:36;;;;;;;30.27;17.30;;;8.50;99.90;;;;;;5094919;28;20183;-73
2023/12/15 02:01:02;;;;;;;27.90;17.47;;;8.40;99.90;;;;;;5076873;28;20175;-72
2023/12/15 02:03:27;;;;;;;31.53;17.90;;;8.40;99.90;;;;;;5095020;28;20225;-73
2023/12/15 02:05:53;;;;;;;34.07;17.73;;;8.30;99.90;;;;;;5094674;28;20172;-73
2023/12/15 02:08:18;;;;;;;29.70;18.80;;;8.40;99.90;;;;;;5094752;28;20207;-73
2023/12/15 02:10:44;;;;;;;33.10;18.47;;;8.30;99.90;;;;;;5094728;28;20179;-72
2023/12/15 02:13:10;;;;;;;28.63;18.50;;;8.30;99.90;;;;;;5094760;28;20225;-74
2023/12/15 02:15:35;;;;;;;32.67;19.30;;;8.40;99.90;;;;;;5094583;28;20210;-72
2023/12/15 02:18:02;;;;;;;33.67;20.37;;;8.40;99.90;;;;;;5076532;28;20199;-73
2023/12/15 02:20:27;;;;;;;33.70;20.07;;;8.40;99.90;;;;;;5094504;28;20171;-73
2023/12/15 02:22:53;;;;;;;29.47;19.17;;;8.40;99.90;;;;;;5094681;28;20168;-73
2023/12/15 02:25:18;;;;;;;33.43;19.73;;;8.30;99.90;;;;;;5094387;28;20175;-73
2023/12/15 02:27:44;;;;;;;33.10;20.80;;;8.30;99.90;;;;;;5094252;28;20306;-73
2023/12/15 02:30:10;;;;;;;33.23;20.27;;;8.30;99.90;;;;;;5094651;28;20263;-72
2023/12/15 02:32:35;;;;;;;33.07;20.33;;;8.30;99.90;;;;;;5094524;28;20206;-72
2023/12/15 02:35:01;;;;;;;33.90;21.17;;;8.30;99.90;;;;;;5075681;28;20164;-72
2023/12/15 02:37:27;;;;;;;33.90;20.97;;;8.30;99.90;;;;;;5094204;28;20176;-72
2023/12/15 02:39:53;;;;;;;36.13;21.83;;;8.40;99.90;;;;;;5094337;28;20267;-73
2023/12/15 02:42:18;;;;;;;30.23;20.83;;;8.40;99.90;;;;;;5094319;28;20204;-72
2023/12/15 02:44:45;;;;;;;35.47;21.90;;;8.40;99.90;;;;;;5094192;28;20200;-73
2023/12/15 02:47:11;;;;;;;32.73;21.33;;;8.40;99.90;;;;;;5094205;28;20217;-72
2023/12/15 02:49:40;;;;;;;33.43;21.67;;;8.40;99.90;;;;;;5093814;28;20568;-72
2023/12/15 02:52:06;;;;;;;33.20;21.40;;;8.40;99.90;;;;;;5075820;28;20532;-73
2023/12/15 02:54:33;;;;;;;29.43;20.83;;;8.50;99.90;;;;;;5093891;28;20688;-72
2023/12/15 02:56:58;;;;;;;35.67;21.80;;;8.50;99.90;;;;;;5093809;28;20275;-72
2023/12/15 02:59:24;;;;;;;33.07;20.20;;;8.50;99.90;;;;;;5075895;28;20167;-72
2023/12/15 03:01:49;;;;;;;37.77;21.63;;;8.50;99.90;;;;;;5075777;28;20627;-71
2023/12/15 03:04:15;;;;;;;36.63;21.30;;;8.60;99.90;;;;;;5093617;28;20200;-71
2023/12/15 03:06:41;;;;;;;43.27;22.63;;;8.60;99.90;;;;;;5093773;28;20176;-73
2023/12/15 03:09:06;;;;;;;34.57;21.03;;;8.60;99.90;;;;;;5093766;28;20218;-72
2023/12/15 03:11:32;;;;;;;34.97;21.90;;;8.70;99.90;;;;;;5093477;28;20197;-73
2023/12/15 03:13:57;;;;;;;29.53;20.77;;;8.80;99.90;;;;;;5093701;28;20179;-72
2023/12/15 03:16:26;;;;;;;32.90;22.17;;;8.80;99.90;;;;;;5093638;28;20189;-72
2023/12/15 03:18:52;;;;;;;34.90;22.33;;;8.80;99.90;;;;;;5093314;28;20689;-73
2023/12/15 03:21:17;;;;;;;36.03;21.30;;;8.80;99.90;;;;;;5093786;28;20176;-72
2023/12/15 03:23:43;;;;;;;35.40;22.20;;;8.80;99.90;;;;;;5093402;28;20172;-73
2023/12/15 03:26:08;;;;;;;36.27;22.30;;;8.80;99.90;;;;;;5093090;28;20227;-72
2023/12/15 03:28:34;;;;;;;39.03;21.87;;;8.80;99.90;;;;;;5093601;28;20333;-73
2023/12/15 03:30:59;;;;;;;38.37;21.90;;;8.80;99.90;;;;;;5075384;28;20198;-72
2023/12/15 03:33:25;;;;;;;34.90;21.63;;;8.80;99.90;;;;;;5093038;28;20194;-73
2023/12/15 03:35:51;;;;;;;34.57;21.57;;;8.90;99.90;;;;;;5092891;28;20168;-72
2023/12/15 03:38:18;;;;;;;35.37;22.00;;;8.90;99.90;;;;;;5093632;28;20180;-73
2023/12/15 03:40:44;;;;;;;33.97;21.67;;;8.90;99.90;;;;;;5093025;28;20176;-73
2023/12/15 03:43:09;;;;;;;33.07;22.33;;;8.90;99.90;;;;;;5093310;28;20180;-73
2023/12/15 03:45:35;;;;;;;32.70;22.37;;;9.00;99.90;;;;;;5093279;28;20655;-71
2023/12/15 03:48:01;;;;;;;34.10;21.70;;;9.10;99.90;;;;;;5092836;28;20218;-72
2023/12/15 03:50:26;;;;;;;35.33;22.67;;;9.00;99.90;;;;;;5075029;28;20172;-73
2023/12/15 03:52:52;;;;;;;39.43;22.50;;;9.20;99.90;;;;;;5075074;28;20176;-71
2023/12/15 03:55:17;;;;;;;37.83;23.30;;;9.10;99.90;;;;;;5093076;28;20173;-72
2023/12/15 03:57:43;;;;;;;36.20;23.77;;;9.10;99.90;;;;;;5074976;28;20215;-72
2023/12/15 04:00:09;;;;;;;36.97;23.33;;;9.10;99.90;;;;;;5093210;28;20225;-72
2023/12/15 04:02:35;;;;;;;43.47;24.37;;;9.10;99.90;;;;;;5092847;28;20168;-71
2023/12/15 04:05:01;;;;;;;38.67;24.07;;;9.10;99.90;;;;;;5092738;28;20180;-73
2023/12/15 04:07:27;;;;;;;38.43;24.03;;;9.10;99.90;;;;;;5093049;28;20543;-72
2023/12/15 04:09:53;;;;;;;40.00;24.33;;;9.10;99.90;;;;;;5093092;28;20176;-73
2023/12/15 04:12:18;;;;;;;41.13;25.63;;;9.10;99.90;;;;;;5093089;28;20184;-73
2023/12/15 04:14:44;;;;;;;45.50;25.57;;;9.10;99.90;;;;;;5092890;28;20168;-73
2023/12/15 04:17:09;;;;;;;46.53;25.77;;;9.10;99.90;;;;;;5074391;28;20186;-72
2023/12/15 04:19:35;;;;;;;45.67;26.10;;;9.20;99.90;;;;;;5092369;28;20316;-72
2023/12/15 04:22:01;;;;;;;41.57;25.77;;;9.20;99.90;;;;;;5074441;28;20171;-72
2023/12/15 04:24:26;;;;;;;46.60;25.37;;;9.20;99.90;;;;;;5092486;28;20524;-73
2023/12/15 04:26:53;;;;;;;47.93;25.83;;;9.20;99.90;;;;;;5092746;28;20300;-73
2023/12/15 04:29:19;;;;;;;47.73;25.83;;;9.10;99.90;;;;;;5092881;28;20212;-72
2023/12/15 04:31:44;;;;;;;46.17;25.97;;;9.20;99.90;;;;;;5092514;28;20171;-72
2023/12/15 04:34:10;;;;;;;46.60;25.60;;;9.20;99.90;;;;;;5074372;28;20563;-74
2023/12/15 04:36:36;;;;;;;44.13;25.47;;;9.20;99.90;;;;;;5092183;28;20172;-73
2023/12/15 04:39:02;;;;;;;49.13;26.37;;;9.20;99.90;;;;;;5092394;28;20172;-74
2023/12/15 04:41:28;;;;;;;46.17;25.10;;;9.10;99.90;;;;;;5092601;28;20171;-73
2023/12/15 04:43:54;;;;;;;48.63;26.77;;;9.20;99.90;;;;;;5092822;28;20533;-73
2023/12/15 04:46:23;;;;;;;48.60;26.57;;;9.20;99.90;;;;;;5092205;28;20183;-71
2023/12/15 04:48:49;;;;;;;47.37;26.20;;;9.10;99.90;;;;;;5077703;28;20559;-72
2023/12/15 04:51:14;;;;;;;45.27;27.13;;;9.10;99.90;;;;;;5096105;28;20174;-72
2023/12/15 04:53:40;;;;;;;48.17;27.27;;;9.20;99.90;;;;;;5095407;28;20686;-73
2023/12/15 04:56:06;;;;;;;47.07;27.07;;;9.20;99.90;;;;;;5096193;28;20510;-72
2023/12/15 04:58:31;;;;;;;50.13;27.40;;;9.20;99.90;;;;;;5077851;28;20180;-72
2023/12/15 05:00:57;;;;;;;54.80;27.93;;;9.20;99.90;;;;;;5095566;28;20175;-73
2023/12/15 05:03:22;;;;;;;46.53;27.27;;;9.20;99.90;;;;;;5095839;28;20175;-72
2023/12/15 05:05:48;;;;;;;44.07;26.77;;;9.20;99.90;;;;;;5096208;28;20171;-73
2023/12/15 05:08:14;;;;;;;55.07;27.77;;;9.30;99.90;;;;;;5095329;28;20200;-74
2023/12/15 05:10:39;;;;;;;48.73;26.33;;;9.30;99.90;;;;;;5095487;28;20595;-74
2023/12/15 05:13:05;;;;;;;55.53;27.97;;;9.20;99.90;;;;;;5095983;28;20639;-73
2023/12/15 05:15:30;;;;;;;52.30;28.10;;;9.20;99.90;;;;;;5095170;28;20172;-73
2023/12/15 05:17:56;;;;;;;56.83;28.87;;;9.20;99.90;;;;;;5095633;28;20205;-72
2023/12/15 05:20:21;;;;;;;52.20;28.00;;;9.20;99.90;;;;;;5095640;28;20183;-72
2023/12/15 05:22:47;;;;;;;59.17;27.03;;;9.30;99.90;;;;;;5095295;28;20222;-71
2023/12/15 05:25:13;;;;;;;53.67;27.07;;;9.30;99.90;;;;;;5095637;28;20164;-72
2023/12/15 05:27:39;;;;;;;53.77;28.43;;;9.30;99.90;;;;;;5095275;28;20314;-73
2023/12/15 05:30:05;;;;;;;50.97;27.23;;;9.30;99.90;;;;;;5094942;28;20167;-73
2023/12/15 05:32:31;;;;;;;56.40;29.73;;;9.30;99.90;;;;;;5094986;28;20187;-73
2023/12/15 05:34:56;;;;;;;56.63;28.60;;;9.30;99.90;;;;;;5094611;28;20172;-73
2023/12/15 05:37:22;;;;;;;60.23;28.73;;;9.20;99.90;;;;;;5095613;28;20175;-72
2023/12/15 05:39:47;;;;;;;57.37;28.97;;;9.30;99.90;;;;;;5095432;28;20559;-70
2023/12/15 05:42:13;;;;;;;58.10;30.30;;;9.30;99.90;;;;;;5095061;28;20164;-72
2023/12/15 05:44:41;;;;;;;58.10;28.90;;;9.10;99.90;;;;;;5094037;28;20236;-72
2023/12/15 05:47:07;;;;;;;55.13;29.70;;;9.10;99.90;;;;;;5076249;28;20168;-73
2023/12/15 05:49:38;;;;;;;59.23;30.47;;;9.20;99.90;;;;;;5095067;28;20195;-73
2023/12/15 05:52:03;;;;;;;55.07;29.33;;;9.20;99.90;;;;;;5076716;28;20203;-73
2023/12/15 05:54:29;;;;;;;62.23;30.50;;;9.10;99.90;;;;;;5094257;28;20588;-73
2023/12/15 05:56:55;;;;;;;57.03;29.73;;;9.10;99.90;;;;;;5094582;28;20187;-72
2023/12/15 05:59:20;;;;;;;51.50;28.07;;;9.10;99.90;;;;;;5094213;28;20168;-73
2023/12/15 06:01:46;;;;;;;57.30;30.20;;;9.20;99.90;;;;;;5093852;28;20243;-72
2023/12/15 06:04:11;;;;;;;53.67;29.63;;;9.10;99.90;;;;;;5093971;28;20168;-73
2023/12/15 06:06:37;;;;;;;55.70;29.00;;;9.00;99.90;;;;;;5093909;28;20242;-73
2023/12/15 06:09:02;;;;;;;52.83;27.90;;;9.00;99.90;;;;;;5093679;28;20218;-72
2023/12/15 06:11:28;;;;;;;54.27;28.97;;;9.10;99.90;;;;;;5093873;28;20225;-72
2023/12/15 06:13:54;;;;;;;59.97;29.83;;;9.00;99.90;;;;;;5093453;28;20192;-73
2023/12/15 06:16:20;;;;;;;62.43;30.30;;;9.00;99.90;;;;;;5093208;28;20175;-72
2023/12/15 06:18:47;;;;;;;58.00;29.23;;;9.00;99.90;;;;;;5093885;28;20211;-73
2023/12/15 06:21:22;;;;;;;58.10;29.00;;;8.90;99.90;;;;;;5093684;28;20175;-72
2023/12/15 06:23:48;;;;;;;62.10;27.67;;;8.80;99.90;;;;;;5093638;28;20553;-72
2023/12/15 06:26:18;;;;;;;58.87;30.60;;;8.80;99.90;;;;;;5093005;28;20311;-71
2023/12/15 06:28:44;;;;;;;60.80;29.57;;;8.80;99.90;;;;;;5074781;28;20234;-73
2023/12/15 06:31:09;;;;;;;60.77;29.10;;;8.90;99.90;;;;;;5093008;28;20639;-72
2023/12/15 06:33:35;;;;;;;64.97;30.07;;;8.80;99.90;;;;;;5093196;28;20218;-74
2023/12/15 06:36:00;;;;;;;59.63;30.60;;;8.90;99.90;;;;;;5093032;28;20174;-73
2023/12/15 06:38:26;;;;;;;58.70;29.70;;;8.90;99.90;;;;;;5093527;28;20670;-73
2023/12/15 06:40:51;;;;;;;60.20;30.20;;;9.00;99.90;;;;;;5092834;28;20288;-75
2023/12/15 06:43:17;;;;;;;57.33;29.83;;;9.00;99.90;;;;;;5092454;28;20214;-73
2023/12/15 06:45:42;;;;;;;61.80;30.13;;;9.00;99.90;;;;;;5074569;28;20271;-73
2023/12/15 06:48:08;;;;;;;60.33;29.43;;;9.00;99.90;;;;;;5093148;28;20227;-73
2023/12/15 06:50:33;;;;;;;61.17;31.23;;;8.90;99.90;;;;;;5092539;28;20168;-72
2023/12/15 06:52:59;;;;;;;59.40;29.80;;;8.90;99.90;;;;;;5092952;28;20178;-73
2023/12/15 06:55:24;;;;;;;59.87;31.37;;;8.80;99.90;;;;;;5092402;28;20168;-74
2023/12/15 06:57:50;;;;;;;62.60;30.40;;;8.90;99.90;;;;;;5092159;28;20186;-74
2023/12/15 07:00:16;;;;;;;61.07;29.33;;;8.80;99.90;;;;;;5093037;28;20214;-73
2023/12/15 07:02:41;;;;;;;58.70;29.33;;;8.80;99.90;;;;;;5092737;28;20267;-73
2023/12/15 07:05:07;;;;;;;60.20;29.83;;;8.80;99.90;;;;;;5074546;28;20180;-73
2023/12/15 07:07:32;;;;;;;59.63;28.70;;;8.70;99.90;;;;;;5093079;28;20200;-73
2023/12/15 07:09:58;;;;;;;67.00;28.60;;;8.70;99.90;;;;;;5091968;28;20168;-73
2023/12/15 07:12:24;;;;;;;58.50;29.00;;;8.70;99.90;;;;;;5092385;28;20176;-73
2023/12/15 07:14:49;;;;;;;60.47;30.77;;;8.70;99.90;;;;;;5092601;28;20172;-73
2023/12/15 07:17:15;;;;;;;58.23;31.10;;;8.80;99.90;;;;;;5092632;28;20180;-72
2023/12/15 07:19:40;;;;;;;64.37;30.27;;;8.90;99.90;;;;;;5092377;28;20254;-72
2023/12/15 07:22:06;;;;;;;59.70;29.20;;;9.00;99.90;;;;;;5092439;28;20596;-73
2023/12/15 07:24:31;;;;;;;61.03;30.17;;;9.00;99.90;;;;;;5092581;28;20183;-74
2023/12/15 07:26:57;;;;;;;57.07;28.63;;;9.00;99.90;;;;;;5091464;28;20306;-73
2023/12/15 07:29:22;;;;;;;59.83;28.70;;;8.90;99.90;;;;;;5092102;28;20215;-73
2023/12/15 07:31:50;;;;;;;59.97;29.27;;;9.00;99.90;;;;;;5092425;28;20248;-73
2023/12/15 07:34:15;;;;;;;54.83;28.23;;;9.00;99.90;;;;;;5092497;28;20187;-73
2023/12/15 07:36:41;;;;;;;49.90;26.80;;;9.00;99.90;;;;;;5091785;28;20210;-73
2023/12/15 07:39:07;;;;;;;49.97;27.60;;;9.00;99.90;;;;;;5091576;28;20172;-73
2023/12/15 07:41:32;;;;;;;66.47;26.93;;;9.00;99.90;;;;;;5091793;28;20270;-72
2023/12/15 07:43:58;;;;;;;51.00;27.53;;;9.10;99.90;;;;;;5092526;28;20175;-72
2023/12/15 07:46:24;;;;;;;52.80;25.73;;;9.10;99.90;;;;;;5092127;28;20228;-72
2023/12/15 07:48:50;;;;;;;49.77;27.97;;;9.10;99.90;;;;;;5092281;28;20218;-73
2023/12/15 07:51:17;;;;;;;47.67;25.73;;;9.10;99.90;;;;;;5091939;28;20271;-72
2023/12/15 07:53:43;;;;;;;47.10;26.00;;;9.20;99.90;;;;;;5091919;28;20183;-73
2023/12/15 07:56:09;;;;;;;43.60;25.47;;;9.40;99.90;;;;;;5091351;28;20285;-72
2023/12/15 07:58:34;;;;;;;44.23;25.00;;;9.40;99.90;;;;;;5091591;28;20587;-72
2023/12/15 08:01:00;;;;;;;48.77;24.13;;;9.40;99.90;;;;;;5092042;28;20211;-73
2023/12/15 08:03:25;;;;;;;45.07;25.17;;;9.30;99.90;;;;;;5092228;28;20172;-73
2023/12/15 08:05:51;;;;;;;47.17;24.13;;;9.30;99.90;;;;;;5091954;28;20258;-73
2023/12/15 08:08:16;;;;;;;42.70;23.37;;;9.20;99.90;;;;;;5092101;28;20200;-73
2023/12/15 08:10:42;;;;;;;45.57;22.80;;;9.20;99.90;;;;;;5090884;28;20221;-73
2023/12/15 08:13:12;;;;;;;43.30;24.27;;;9.20;99.90;;;;;;5092008;28;20225;-73
2023/12/15 08:15:38;;;;;;;47.60;23.67;;;9.20;99.90;;;;;;5092370;28;20176;-73
2023/12/15 08:18:04;;;;;;;43.73;22.00;;;9.20;99.90;;;;;;5092085;28;20195;-73
2023/12/15 08:20:30;;;;;;;43.97;23.00;;;9.30;99.90;;;;;;5092145;28;20172;-74
2023/12/15 08:22:55;;;;;;;37.87;20.83;;;9.30;99.90;;;;;;5095737;28;20255;-73
2023/12/15 08:25:21;;;;;;;38.30;20.70;;;9.50;99.90;;;;;;5077618;28;20164;-72
2023/12/15 08:27:47;;;;;;;39.57;20.27;;;9.40;99.90;;;;;;5095659;28;20219;-72
2023/12/15 08:30:13;;;;;;;35.37;20.30;;;9.40;99.90;;;;;;5095800;28;20245;-72
2023/12/15 08:32:38;;;;;;;33.33;19.57;;;9.40;99.90;;;;;;5096348;28;20200;-72
2023/12/15 08:35:04;;;;;;;35.50;19.07;;;9.40;99.90;;;;;;5093395;28;20184;-69
2023/12/15 08:37:30;;;;;;;31.93;18.57;;;9.40;99.90;;;;;;5087062;28;20176;-70
2023/12/15 08:39:55;;;;;;;36.20;17.83;;;9.60;99.90;;;;;;5094951;28;20190;-69
2023/12/15 08:42:21;;;;;;;39.27;17.60;;;9.60;99.90;;;;;;5095087;28;20483;-69
2023/12/15 08:44:46;;;;;;;31.93;17.80;;;9.80;99.90;;;;;;5088839;28;20214;-69
2023/12/15 08:47:12;;;;;;;35.07;18.73;;;9.90;99.90;;;;;;5057034;28;20168;-68
2023/12/15 08:49:37;;;;;;;32.80;16.00;;;9.90;99.90;;;;;;5075448;28;20165;-69
2023/12/15 08:52:03;;;;;;;32.27;16.73;;;10.00;99.90;;;;;;5074643;28;20167;-70
2023/12/15 08:54:29;;;;;;;32.57;15.60;;;10.00;99.90;;;;;;5080827;28;20180;-71
2023/12/15 08:56:54;;;;;;;31.43;15.77;;;10.00;99.90;;;;;;5094020;28;20172;-70
2023/12/15 08:59:21;;;;;;;26.00;14.83;;;9.90;99.90;;;;;;5094654;28;20168;-70
2023/12/15 09:01:47;;;;;;;34.37;15.87;;;9.90;99.90;;;;;;5094062;28;20180;-69
2023/12/15 09:04:12;;;;;;;30.93;15.40;;;9.80;99.90;;;;;;5094732;28;20180;-69
2023/12/15 09:06:38;;;;;;;35.70;15.20;;;9.80;99.90;;;;;;5093874;28;20175;-69
2023/12/15 09:09:03;;;;;;;24.83;12.33;;;9.90;99.90;;;;;;5093700;28;20243;-71
2023/12/15 09:11:29;;;;;;;26.20;13.37;;;10.00;99.90;;;;;;5094476;28;20226;-71
2023/12/15 09:13:55;;;;;;;25.57;13.00;;;10.10;99.90;;;;;;5094626;28;20229;-69
2023/12/15 09:16:21;;;;;;;27.17;13.00;;;10.20;99.90;;;;;;5093920;28;20639;-70
2023/12/15 09:18:47;;;;;;;21.80;11.43;;;10.20;99.90;;;;;;5095218;28;20203;-72
2023/12/15 09:21:12;;;;;;;26.43;12.50;;;10.30;99.90;;;;;;5093193;28;20576;-69
2023/12/15 09:23:38;;;;;;;25.63;13.23;;;10.40;99.90;;;;;;5093451;28;20180;-70
2023/12/15 09:26:03;;;;;;;30.00;13.23;;;10.50;99.90;;;;;;5093772;28;20262;-69
2023/12/15 09:28:29;;;;;;;32.80;13.40;;;10.50;99.90;;;;;;5094364;28;20211;-70
2023/12/15 09:30:55;;;;;;;24.17;12.00;;;10.60;99.90;;;;;;5093666;28;20171;-70
2023/12/15 09:33:20;;;;;;;25.47;12.13;;;10.70;99.90;;;;;;5092634;28;20266;-71
2023/12/15 09:35:46;;;;;;;19.60;10.97;;;11.00;99.90;;;;;;5093334;28;20342;-70
2023/12/15 09:38:12;;;;;;;22.37;10.90;;;11.20;99.90;;;;;;5092921;28;20241;-70
2023/12/15 09:40:37;;;;;;;24.63;11.53;;;11.30;99.90;;;;;;5075929;28;20175;-67
2023/12/15 09:43:03;;;;;;;24.77;10.67;;;11.30;99.90;;;;;;5093731;28;20177;-67
2023/12/15 09:45:30;;;;;;;16.00;10.53;;;11.40;99.90;;;;;;5094983;28;20171;-68
2023/12/15 09:47:57;;;;;;;26.47;11.37;;;11.60;99.90;;;;;;5093852;28;20737;-70
2023/12/15 09:50:27;;;;;;;28.57;10.87;;;11.70;99.90;;;;;;5094019;28;20168;-69
2023/12/15 09:52:55;;;;;;;20.83;8.90;;;11.90;99.90;;;;;;5094193;28;20545;-69
2023/12/15 09:55:21;;;;;;;26.70;11.13;;;12.10;99.90;;;;;;5093005;28;20170;-69
2023/12/15 09:57:47;;;;;;;22.23;10.00;;;12.10;99.90;;;;;;5094120;28;20177;-69
2023/12/15 10:00:13;;;;;;;22.77;10.63;;;12.20;99.90;;;;;;5093928;28;20229;-70
2023/12/15 10:02:38;;;;;;;21.37;9.40;;;12.20;99.90;;;;;;5075314;28;20207;-70
2023/12/15 10:05:04;;;;;;;18.07;6.93;;;12.40;99.90;;;;;;5093831;28;20215;-68
2023/12/15 10:07:30;;;;;;;15.43;6.47;;;12.30;99.90;;;;;;5094258;28;20557;-70
2023/12/15 10:09:55;;;;;;;17.60;6.47;;;12.40;99.90;;;;;;5092965;28;20719;-69
2023/12/15 10:12:21;;;;;;;21.83;8.83;;;12.30;99.90;;;;;;5094070;28;20171;-69
2023/12/15 10:14:47;;;;;;;15.37;7.67;;;12.10;99.90;;;;;;5093699;28;20564;-70
2023/12/15 10:17:13;;;;;;;17.90;6.83;;;12.10;99.90;;;;;;5094248;28;20595;-70
2023/12/15 10:19:39;;;;;;;14.17;6.23;;;12.10;99.90;;;;;;5093163;28;20199;-69
2023/12/15 10:22:05;;;;;;;23.00;6.83;;;12.20;99.90;;;;;;5093276;28;20168;-70
2023/12/15 10:24:33;;;;;;;15.90;6.10;;;12.00;99.90;;;;;;5074755;28;20646;-70
2023/12/15 10:27:02;;;;;;;17.53;6.30;;;11.90;99.90;;;;;;5072385;28;20221;-71
2023/12/15 10:29:28;;;;;;;12.60;5.83;;;12.00;99.90;;;;;;5056772;28;20219;-68
2023/12/15 10:31:54;;;;;;;17.07;6.17;;;12.00;99.90;;;;;;5073734;28;20176;-70
2023/12/15 10:34:27;;;;;;;18.13;6.17;;;12.00;99.90;;;;;;5075562;28;20180;-70
2023/12/15 10:36:53;;;;;;;17.97;6.20;;;12.00;99.90;;;;;;5072825;28;20531;-68
2023/12/15 10:39:19;;;;;;;12.80;5.70;;;12.00;99.90;;;;;;5073491;28;20195;-70
2023/12/15 10:41:47;;;;;;;12.03;5.90;;;12.00;99.90;;;;;;5073433;28;20165;-71
2023/12/15 10:44:13;;;;;;;16.80;6.57;;;12.10;99.90;;;;;;5092173;28;20188;-69
2023/12/15 10:46:43;;;;;;;19.63;6.50;;;12.30;99.90;;;;;;5093205;28;20262;-69
2023/12/15 10:49:10;;;;;;;16.20;6.87;;;12.20;99.90;;;;;;5074801;28;20759;-69
2023/12/15 10:51:38;;;;;;;13.90;6.37;;;12.30;99.90;;;;;;5092732;28;20199;-69
2023/12/15 10:54:05;;;;;;;16.53;6.03;;;12.30;99.90;;;;;;5074018;28;20165;-69
2023/12/15 10:56:32;;;;;;;15.60;5.80;;;12.40;99.90;;;;;;5093624;28;20176;-70
2023/12/15 10:58:59;;;;;;;13.83;6.00;;;12.50;99.90;;;;;;5093016;28;20285;-69
2023/12/15 11:01:27;;;;;;;12.83;5.60;;;12.30;99.90;;;;;;5092860;28;20176;-70
2023/12/15 11:03:53;;;;;;;16.03;5.30;;;12.40;99.90;;;;;;5092343;28;20172;-70
2023/12/15 11:06:30;;;;;;;13.60;5.80;;;12.20;99.90;;;;;;5091812;28;20199;-71
2023/12/15 11:09:07;;;;;;;14.47;5.50;;;12.30;99.90;;;;;;5090525;28;20211;-70
2023/12/15 11:11:33;;;;;;;14.23;5.20;;;12.20;99.90;;;;;;5091848;28;20167;-70
2023/12/15 11:14:04;;;;;;;15.30;5.07;;;12.10;99.90;;;;;;5091741;28;20187;-71
2023/12/15 11:16:31;;;;;;;15.07;4.90;;;12.10;99.90;;;;;;5090376;28;20171;-67
2023/12/15 11:18:59;;;;;;;14.63;5.57;;;12.00;99.90;;;;;;5091775;28;20191;-71
2023/12/15 11:21:25;;;;;;;18.27;5.97;;;11.80;99.90;;;;;;5092312;28;20183;-69
2023/12/15 11:24:11;;;;;;;12.93;5.30;;;11.70;99.90;;;;;;5092067;28;20814;-69
2023/12/15 11:26:42;;;;;;;14.00;5.13;;;11.70;99.90;;;;;;5091370;28;20212;-68
2023/12/15 11:29:19;;;;;;;15.77;6.40;;;11.80;99.90;;;;;;5091688;28;20205;-69
2023/12/15 11:31:45;;;;;;;18.90;6.73;;;11.90;99.90;;;;;;5092114;28;20326;-70
2023/12/15 11:34:37;;;;;;;13.03;6.67;;;11.90;99.90;;;;;;5091312;28;20592;-70
2023/12/15 11:37:03;;;;;;;16.43;6.23;;;11.80;99.90;;;;;;5090271;28;20180;-69
2023/12/15 11:39:30;;;;;;;12.93;5.30;;;11.60;99.90;;;;;;5091443;28;20187;-69
2023/12/15 11:41:57;;;;;;;19.80;6.10;;;11.70;99.90;;;;;;5093019;28;20172;-69
2023/12/15 11:44:27;;;;;;;15.40;5.77;;;11.60;99.90;;;;;;5091599;28;20217;-70
2023/12/15 11:46:53;;;;;;;16.00;5.90;;;11.60;99.90;;;;;;5090590;28;20176;-68
2023/12/15 11:49:23;;;;;;;20.50;6.27;;;11.50;99.90;;;;;;5091516;28;20211;-68
2023/12/15 11:51:50;;;;;;;18.30;6.30;;;11.60;99.90;;;;;;5092034;28;20241;-69
2023/12/15 11:54:15;;;;;;;13.53;5.20;;;11.70;99.90;;;;;;5091023;28;20277;-70
2023/12/15 11:56:41;;;;;;;20.33;6.00;;;11.80;99.90;;;;;;5094404;28;20188;-68
2023/12/15 11:59:06;;;;;;;12.13;5.10;;;11.90;99.90;;;;;;5096204;28;20266;-69
2023/12/15 12:01:37;;;;;;;14.30;6.00;;;11.90;99.90;;;;;;5096325;28;20240;-68
2023/12/15 12:04:02;;;;;;;13.87;5.37;;;11.90;99.90;;;;;;5095862;28;20170;-71
2023/12/15 12:06:29;;;;;;;11.53;5.07;;;12.10;99.90;;;;;;5095953;28;20172;-69
2023/12/15 12:08:55;;;;;;;16.17;5.57;;;11.90;99.90;;;;;;5077960;28;20529;-69
2023/12/15 12:11:21;;;;;;;17.17;5.37;;;11.90;99.90;;;;;;5096466;28;20172;-69
2023/12/15 12:13:48;;;;;;;12.53;4.30;;;12.00;99.90;;;;;;5077639;28;20219;-70
2023/12/15 12:16:16;;;;;;;13.23;5.20;;;12.10;99.90;;;;;;5095500;28;20180;-69
2023/12/15 12:18:44;;;;;;;14.33;5.47;;;12.30;99.90;;;;;;5076907;28;20309;-70
2023/12/15 12:21:10;;;;;;;15.40;5.20;;;12.30;99.90;;;;;;5095883;28;20175;-69
2023/12/15 12:23:36;;;;;;;15.30;5.70;;;12.20;99.90;;;;;;5096020;28;20186;-70
2023/12/15 12:26:02;;;;;;;18.33;7.20;;;12.30;99.90;;;;;;5094623;28;20179;-69
2023/12/15 12:28:50;;;;;;;13.33;5.23;;;12.40;99.90;;;;;;5095790;28;20510;-69
2023/12/15 12:31:16;;;;;;;20.17;6.23;;;12.50;99.90;;;;;;5095522;28;20309;-70